Time;durP1;ratioP1;P1;durP2;ratioP2;P2;SDS_P1;SDS_P2;PMS_P1;PMS_P2;Temp;Humidity;BMP_temperature;BMP_pressure;BME280_temperature;BME280_humidity;BME280_pressure;Samples;Min_cycle;Max_cycle;Signal;HPM_P1;HPM_P2
2021/12/24 00:01:36;;;;;;;15.10;11.00;;;4.60;99.90;;;;;;5050724;28;20975;-76
2021/12/24 00:04:02;;;;;;;19.00;11.90;;;4.60;99.90;;;;;;5048101;28;20226;-76
2021/12/24 00:06:28;;;;;;;16.37;11.87;;;4.60;99.90;;;;;;5056746;28;20180;-76
2021/12/24 00:19:39;;;;;;;16.90;11.47;;;4.90;99.90;;;;;;5553615;22;20669;-76
2021/12/24 00:36:25;;;;;;;12.77;9.97;;;5.00;99.90;;;;;;5060270;28;20617;-76
2021/12/24 00:38:51;;;;;;;12.80;9.80;;;5.10;99.90;;;;;;5038392;28;20721;-76
2021/12/24 00:41:17;;;;;;;13.37;9.60;;;5.00;99.90;;;;;;5055068;28;20269;-76
2021/12/24 00:43:46;;;;;;;14.20;10.23;;;5.10;99.90;;;;;;5053990;28;20606;-76
2021/12/24 00:46:12;;;;;;;12.83;9.17;;;5.20;99.90;;;;;;5058265;28;20721;-76
2021/12/24 00:48:40;;;;;;;10.23;8.47;;;5.10;99.90;;;;;;5052403;28;20682;-76
2021/12/24 00:51:20;;;;;;;11.27;8.53;;;5.30;99.90;;;;;;5058451;28;20227;-76
2021/12/24 00:56:40;;;;;;;10.80;8.50;;;5.30;99.90;;;;;;5074138;28;20603;-76
2021/12/24 00:59:06;;;;;;;11.00;8.57;;;5.20;99.90;;;;;;5074233;28;20606;-76
2021/12/24 01:01:32;;;;;;;12.27;8.97;;;5.50;99.90;;;;;;5085004;28;20668;-76
2021/12/24 01:03:57;;;;;;;12.23;9.10;;;5.20;99.90;;;;;;5073462;28;20188;-76
2021/12/24 01:06:23;;;;;;;10.63;8.27;;;5.40;99.90;;;;;;5079184;28;20196;-76
2021/12/24 01:19:57;;;;;;;11.53;8.00;;;5.60;99.90;;;;;;5054540;28;20630;-76
2021/12/24 01:23:05;;;;;;;10.80;8.30;;;5.60;99.90;;;;;;5043049;28;20622;-76
2021/12/24 01:28:05;;;;;;;12.17;8.93;;;5.50;99.90;;;;;;5051687;28;20626;-76
2021/12/24 01:44:11;;;;;;;12.67;9.80;;;5.70;99.90;;;;;;5048234;28;21195;-76
2021/12/24 01:46:37;;;;;;;13.63;9.03;;;5.50;99.90;;;;;;5053856;28;20625;-75
2021/12/24 01:51:41;;;;;;;13.43;8.63;;;5.70;99.90;;;;;;6167118;22;20275;-76
2021/12/24 01:54:11;;;;;;;10.77;8.83;;;5.80;99.90;;;;;;5094604;28;20632;-76
2021/12/24 01:56:37;;;;;;;10.83;8.70;;;5.90;99.90;;;;;;5075073;28;20261;-76
2021/12/24 01:59:03;;;;;;;12.63;8.90;;;5.80;99.90;;;;;;5089088;28;21209;-76
2021/12/24 02:01:29;;;;;;;11.50;9.43;;;5.80;99.90;;;;;;5062319;28;20605;-76
2021/12/24 02:03:55;;;;;;;13.53;9.50;;;5.80;99.90;;;;;;5091421;28;20635;-76
2021/12/24 02:06:21;;;;;;;12.10;8.00;;;5.90;99.90;;;;;;5084123;28;20194;-75
2021/12/24 02:08:49;;;;;;;10.87;8.93;;;5.80;99.90;;;;;;5084439;28;20688;-76
2021/12/24 02:11:18;;;;;;;14.60;9.53;;;5.90;99.90;;;;;;5077361;28;20240;-76
2021/12/24 02:13:44;;;;;;;12.17;9.67;;;5.90;99.90;;;;;;5077230;28;20612;-75
2021/12/24 02:16:33;;;;;;;12.50;9.63;;;5.70;99.90;;;;;;5088681;28;21126;-76
2021/12/24 02:29:57;;;;;;;10.50;9.33;;;6.00;99.90;;;;;;5078580;28;20755;-75
2021/12/24 02:32:23;;;;;;;12.57;9.70;;;5.70;99.90;;;;;;5095148;28;20604;-76
2021/12/24 02:34:49;;;;;;;10.90;8.77;;;5.90;99.90;;;;;;5092181;28;20620;-76
2021/12/24 02:37:18;;;;;;;10.30;8.70;;;5.80;99.90;;;;;;5077723;28;20592;-75
2021/12/24 02:39:44;;;;;;;10.67;9.10;;;5.90;99.90;;;;;;5076762;28;20638;-76
2021/12/24 02:42:16;;;;;;;10.37;8.60;;;5.90;99.90;;;;;;5074368;28;20604;-76
2021/12/24 02:44:44;;;;;;;9.93;8.00;;;5.90;99.90;;;;;;5079966;28;20993;-76
2021/12/24 02:55:12;;;;;;;10.27;7.53;;;6.00;99.90;;;;;;5084702;28;20648;-76
2021/12/24 02:57:39;;;;;;;10.53;8.17;;;5.80;99.90;;;;;;5074406;28;20656;-76
2021/12/24 03:00:14;;;;;;;9.90;8.87;;;5.80;99.90;;;;;;5073789;28;21103;-76
2021/12/24 03:02:45;;;;;;;9.60;7.53;;;6.00;99.90;;;;;;5088790;28;20651;-76
2021/12/24 03:05:13;;;;;;;9.70;7.97;;;6.00;99.90;;;;;;5083826;28;20628;-76
2021/12/24 03:07:42;;;;;;;8.10;7.20;;;6.00;99.90;;;;;;5083505;28;20632;-76
2021/12/24 03:10:15;;;;;;;7.50;6.80;;;6.20;99.90;;;;;;5067463;28;20642;-76
2021/12/24 03:12:44;;;;;;;8.33;7.40;;;6.10;99.90;;;;;;5064526;28;20608;-75
2021/12/24 03:15:13;;;;;;;9.37;7.47;;;6.10;99.90;;;;;;5069308;28;20651;-76
2021/12/24 03:17:39;;;;;;;9.23;7.50;;;6.10;99.90;;;;;;5073876;28;20972;-76
2021/12/24 03:20:09;;;;;;;10.10;7.90;;;6.10;99.90;;;;;;5074344;28;20629;-76
2021/12/24 03:25:06;;;;;;;9.10;7.67;;;6.10;99.90;;;;;;5088070;28;20615;-77
2021/12/24 03:27:31;;;;;;;9.20;7.57;;;5.90;99.90;;;;;;5084939;28;20651;-76
2021/12/24 03:29:58;;;;;;;8.83;7.37;;;5.90;99.90;;;;;;5068135;28;20656;-76
2021/12/24 03:32:25;;;;;;;8.70;7.40;;;6.30;99.90;;;;;;5070467;28;20273;-76
2021/12/24 03:34:51;;;;;;;9.20;7.80;;;6.20;99.90;;;;;;5082297;28;21224;-76
2021/12/24 03:37:17;;;;;;;7.87;6.80;;;6.10;99.90;;;;;;5088334;28;20608;-77
2021/12/24 03:39:48;;;;;;;9.30;7.03;;;6.20;99.90;;;;;;5095600;28;20616;-76
2021/12/24 03:42:13;;;;;;;8.10;7.27;;;6.20;99.90;;;;;;5094496;28;20178;-76
2021/12/24 03:44:46;;;;;;;7.50;6.80;;;6.00;99.90;;;;;;5079704;28;20589;-76
2021/12/24 03:47:17;;;;;;;8.93;6.40;;;6.30;99.90;;;;;;5071160;28;20228;-77
2021/12/24 03:54:59;;;;;;;9.00;7.77;;;6.10;99.90;;;;;;5079775;28;20573;-76
2021/12/24 03:57:27;;;;;;;7.67;6.23;;;6.30;99.90;;;;;;5071684;28;20648;-76
2021/12/24 03:59:54;;;;;;;9.03;7.60;;;6.40;99.90;;;;;;5088044;28;21167;-76
2021/12/24 04:02:20;;;;;;;10.30;7.80;;;6.10;99.90;;;;;;5061232;28;20698;-76
2021/12/24 04:04:46;;;;;;;7.70;6.70;;;6.30;99.90;;;;;;5080632;28;20608;-77
2021/12/24 04:07:14;;;;;;;11.40;7.50;;;6.30;99.90;;;;;;5074881;28;20635;-76
2021/12/24 04:09:51;;;;;;;10.90;7.27;;;6.10;99.90;;;;;;5080465;28;20653;-76
2021/12/24 04:12:17;;;;;;;8.57;7.50;;;6.30;99.90;;;;;;5089525;28;21117;-76
2021/12/24 04:14:43;;;;;;;9.37;7.63;;;6.40;99.90;;;;;;5072482;28;20601;-76
2021/12/24 04:17:11;;;;;;;11.57;8.67;;;6.30;99.90;;;;;;5071581;28;20654;-77
2021/12/24 04:25:18;;;;;;;9.83;8.10;;;6.50;99.90;;;;;;5079907;28;20559;-76
2021/12/24 05:02:10;;;;;;;12.63;9.10;;;6.40;99.90;;;;;;5086366;28;20663;-75
2021/12/24 05:04:48;;;;;;;12.60;9.03;;;6.40;99.90;;;;;;5078196;28;20777;-75
2021/12/24 05:17:44;;;;;;;11.60;8.50;;;6.30;99.90;;;;;;5084042;28;21028;-76
2021/12/24 05:22:57;;;;;;;11.77;8.87;;;6.30;99.90;;;;;;5088133;28;20586;-76
2021/12/24 05:25:22;;;;;;;14.20;8.80;;;6.20;99.90;;;;;;5076667;28;20621;-76
2021/12/24 05:27:55;;;;;;;14.73;10.07;;;6.50;99.90;;;;;;5090167;28;21050;-75
2021/12/24 05:30:24;;;;;;;13.90;9.80;;;6.50;99.90;;;;;;5069865;28;20334;-76
2021/12/24 05:32:50;;;;;;;12.23;9.40;;;6.40;99.90;;;;;;5057338;28;20599;-76
2021/12/24 05:35:16;;;;;;;10.87;8.60;;;6.50;99.90;;;;;;5062899;28;21179;-76
2021/12/24 05:37:42;;;;;;;12.97;8.60;;;6.30;99.90;;;;;;5079320;28;20625;-76
2021/12/24 05:40:08;;;;;;;10.40;7.50;;;6.20;99.90;;;;;;5072428;28;20219;-76
2021/12/24 05:42:36;;;;;;;10.77;8.40;;;6.40;99.90;;;;;;5076432;28;20184;-76
2021/12/24 05:45:05;;;;;;;11.00;8.40;;;6.40;99.90;;;;;;5061782;28;20607;-76
2021/12/24 05:47:31;;;;;;;10.07;7.93;;;6.40;99.90;;;;;;5070183;28;20633;-76
2021/12/24 05:49:57;;;;;;;12.47;7.87;;;6.50;99.90;;;;;;5082327;28;20649;-76
2021/12/24 05:52:23;;;;;;;9.90;7.70;;;6.30;99.90;;;;;;5076304;28;20597;-75
2021/12/24 05:54:49;;;;;;;10.13;7.87;;;6.20;99.90;;;;;;5080508;28;20974;-76
2021/12/24 05:59:53;;;;;;;11.53;7.40;;;6.30;99.90;;;;;;5480547;22;20242;-76
2021/12/24 06:02:24;;;;;;;9.07;6.83;;;6.30;99.90;;;;;;5066648;28;20601;-75
2021/12/24 06:04:49;;;;;;;8.63;6.30;;;6.40;99.90;;;;;;5065863;28;20585;-76
2021/12/24 06:07:15;;;;;;;5.90;4.80;;;6.40;99.90;;;;;;5070585;28;20622;-76
2021/12/24 06:09:43;;;;;;;5.93;4.60;;;6.30;99.90;;;;;;5076420;28;20231;-76
2021/12/24 06:12:09;;;;;;;4.80;3.90;;;6.00;99.90;;;;;;5051515;28;20180;-76
2021/12/24 06:14:35;;;;;;;4.47;3.87;;;6.20;99.90;;;;;;5088107;28;20603;-75
2021/12/24 06:17:02;;;;;;;5.90;4.47;;;6.20;99.90;;;;;;5082945;28;20702;-75
2021/12/24 06:19:31;;;;;;;4.10;3.70;;;6.10;99.90;;;;;;5049781;28;20550;-75
2021/12/24 06:22:00;;;;;;;4.10;3.70;;;6.00;99.90;;;;;;5080414;28;20597;-75
2021/12/24 06:24:26;;;;;;;4.27;3.60;;;6.00;99.90;;;;;;5056211;28;20716;-76
2021/12/24 06:26:54;;;;;;;4.00;3.47;;;5.90;99.90;;;;;;5067287;28;20687;-76
2021/12/24 06:29:23;;;;;;;4.10;3.50;;;6.00;99.90;;;;;;5066369;28;20203;-75
2021/12/24 06:31:49;;;;;;;3.97;3.57;;;5.80;99.90;;;;;;5087944;28;20573;-75
2021/12/24 06:34:18;;;;;;;4.40;4.00;;;5.60;99.90;;;;;;5062812;28;20703;-76
2021/12/24 06:36:47;;;;;;;4.60;4.20;;;5.70;99.90;;;;;;5062704;28;20614;-75
2021/12/24 06:39:13;;;;;;;4.30;3.90;;;5.60;99.90;;;;;;5084751;28;21092;-75
2021/12/24 06:41:39;;;;;;;4.00;3.50;;;5.60;99.90;;;;;;5083188;28;20674;-75
2021/12/24 06:44:10;;;;;;;5.40;4.47;;;5.50;99.90;;;;;;5081247;28;21042;-76
2021/12/24 06:46:40;;;;;;;4.97;4.47;;;5.30;99.90;;;;;;5079847;28;21258;-76
2021/12/24 06:49:11;;;;;;;4.93;4.40;;;5.60;99.90;;;;;;5065814;28;20655;-75
2021/12/24 06:51:40;;;;;;;5.03;4.53;;;5.20;99.90;;;;;;5078395;28;20995;-76
2021/12/24 06:54:06;;;;;;;4.87;4.10;;;5.30;99.90;;;;;;5062784;28;20742;-75
2021/12/24 06:56:32;;;;;;;5.30;4.80;;;5.30;99.90;;;;;;5056891;28;21204;-75
2021/12/24 06:58:58;;;;;;;4.90;4.40;;;5.30;99.90;;;;;;5081919;28;20634;-76
2021/12/24 07:01:26;;;;;;;4.90;4.40;;;5.30;99.90;;;;;;5062005;28;20220;-76
2021/12/24 07:03:52;;;;;;;6.30;5.20;;;5.10;99.90;;;;;;5075418;28;20192;-75
2021/12/24 07:06:18;;;;;;;5.20;4.43;;;5.10;99.90;;;;;;5052065;28;20631;-76
2021/12/24 07:08:43;;;;;;;5.20;4.10;;;5.10;99.90;;;;;;5066260;28;20259;-75
2021/12/24 07:11:09;;;;;;;6.03;4.60;;;5.10;99.90;;;;;;5064313;28;20239;-75
2021/12/24 07:13:35;;;;;;;5.60;4.50;;;5.00;99.90;;;;;;5060186;28;20196;-75
2021/12/24 07:16:01;;;;;;;5.00;4.50;;;5.00;99.90;;;;;;5070388;28;20619;-75
2021/12/24 07:18:27;;;;;;;6.60;5.00;;;4.90;99.90;;;;;;5082402;28;20629;-75
2021/12/24 07:20:53;;;;;;;5.37;4.87;;;4.90;99.90;;;;;;5074065;28;20273;-75
2021/12/24 07:23:19;;;;;;;5.63;4.87;;;4.90;99.90;;;;;;5076838;28;20617;-75
2021/12/24 07:25:46;;;;;;;5.10;4.60;;;4.90;99.90;;;;;;5063936;28;20707;-75
2021/12/24 07:28:12;;;;;;;5.97;5.37;;;5.00;99.90;;;;;;5059712;28;20637;-76
2021/12/24 07:30:37;;;;;;;7.10;5.20;;;4.80;99.90;;;;;;5061166;28;20655;-75
2021/12/24 07:33:03;;;;;;;6.47;4.97;;;4.60;99.90;;;;;;5082417;28;20609;-75
2021/12/24 07:35:29;;;;;;;6.33;4.83;;;4.70;99.90;;;;;;5067907;28;20190;-76
2021/12/24 07:37:55;;;;;;;5.83;4.63;;;4.80;99.90;;;;;;5057397;28;21210;-76
2021/12/24 07:40:25;;;;;;;6.03;5.03;;;4.90;99.90;;;;;;5067519;28;20272;-75
2021/12/24 07:42:50;;;;;;;5.47;4.90;;;4.80;99.90;;;;;;5060749;28;20190;-75
2021/12/24 07:45:17;;;;;;;6.63;5.40;;;4.60;99.90;;;;;;5064591;28;20620;-74
2021/12/24 07:47:44;;;;;;;6.07;5.47;;;4.80;99.90;;;;;;5069410;28;20667;-75
2021/12/24 07:52:56;;;;;;;5.67;5.10;;;4.80;99.90;;;;;;5085260;28;21171;-75
2021/12/24 07:55:22;;;;;;;5.87;5.23;;;4.50;99.90;;;;;;5063210;28;21156;-75
2021/12/24 07:57:50;;;;;;;7.07;5.17;;;4.50;99.90;;;;;;5064426;28;20693;-75
2021/12/24 08:00:17;;;;;;;5.93;4.83;;;4.60;99.90;;;;;;5078018;28;20637;-75
2021/12/24 08:02:44;;;;;;;5.40;4.87;;;4.60;99.90;;;;;;5076552;28;20703;-75
2021/12/24 08:05:13;;;;;;;5.27;4.77;;;4.60;99.90;;;;;;5083749;28;20948;-75
2021/12/24 08:07:39;;;;;;;5.87;4.60;;;4.60;99.90;;;;;;5060667;28;20641;-75
2021/12/24 08:10:05;;;;;;;5.93;5.20;;;4.70;99.90;;;;;;5075723;28;20644;-75
2021/12/24 08:12:31;;;;;;;5.13;4.63;;;4.40;99.90;;;;;;5064324;28;20601;-75
2021/12/24 08:14:57;;;;;;;5.20;4.70;;;4.50;99.90;;;;;;5066213;28;20636;-75
2021/12/24 08:17:22;;;;;;;5.30;4.80;;;4.50;99.90;;;;;;5082038;28;20302;-75
2021/12/24 08:19:48;;;;;;;6.00;5.40;;;4.50;99.90;;;;;;5058009;28;20222;-75
2021/12/24 08:22:14;;;;;;;6.60;5.13;;;4.50;99.90;;;;;;5059335;28;20196;-75
2021/12/24 08:24:40;;;;;;;5.23;4.70;;;4.40;99.90;;;;;;5071122;28;21035;-75
2021/12/24 08:27:07;;;;;;;5.67;5.03;;;4.60;99.90;;;;;;5061767;28;20678;-75
2021/12/24 08:29:33;;;;;;;5.50;5.00;;;4.40;99.90;;;;;;5071963;28;20637;-75
2021/12/24 08:31:59;;;;;;;7.07;5.07;;;4.20;99.90;;;;;;5076621;28;20582;-76
2021/12/24 08:34:25;;;;;;;6.63;5.87;;;4.50;99.90;;;;;;5072485;28;20627;-75
2021/12/24 08:36:52;;;;;;;6.20;5.10;;;4.50;99.90;;;;;;5081156;28;20658;-75
2021/12/24 08:39:20;;;;;;;6.17;5.23;;;4.50;99.90;;;;;;5052604;28;20641;-75
2021/12/24 08:41:46;;;;;;;6.53;5.43;;;4.30;99.90;;;;;;5075764;28;21011;-76
2021/12/24 08:44:12;;;;;;;5.80;5.20;;;4.40;99.90;;;;;;5064408;28;20677;-76
2021/12/24 08:46:39;;;;;;;5.93;5.33;;;4.50;99.90;;;;;;5063677;28;20722;-75
2021/12/24 08:49:05;;;;;;;6.60;5.53;;;4.30;99.90;;;;;;5060505;28;21004;-75
2021/12/24 08:51:31;;;;;;;7.13;5.27;;;4.30;99.90;;;;;;5058564;28;20691;-75
2021/12/24 08:53:58;;;;;;;5.37;4.83;;;4.20;99.90;;;;;;5079765;28;20610;-75
2021/12/24 08:56:24;;;;;;;6.70;5.20;;;4.30;99.90;;;;;;5064925;28;20589;-76
2021/12/24 08:58:52;;;;;;;7.47;5.70;;;4.30;99.90;;;;;;5078196;28;20638;-75
2021/12/24 09:01:17;;;;;;;6.80;5.10;;;4.20;99.90;;;;;;5062512;28;20294;-75
2021/12/24 09:03:43;;;;;;;5.93;5.33;;;4.30;99.90;;;;;;5068331;28;21036;-75
2021/12/24 09:06:09;;;;;;;5.57;4.97;;;4.20;99.90;;;;;;5079031;28;20201;-75
2021/12/24 09:08:44;;;;;;;6.67;5.17;;;4.20;99.90;;;;;;5056459;28;20695;-75
2021/12/24 09:11:11;;;;;;;5.67;5.17;;;4.20;99.90;;;;;;5052765;28;20634;-75
2021/12/24 09:13:37;;;;;;;5.90;5.30;;;4.20;99.90;;;;;;5075229;28;20655;-75
2021/12/24 09:16:04;;;;;;;6.03;5.40;;;4.20;99.90;;;;;;5068793;28;20624;-75
2021/12/24 09:18:30;;;;;;;6.67;5.13;;;4.30;99.90;;;;;;5065123;28;20677;-75
2021/12/24 09:21:00;;;;;;;6.97;6.37;;;4.20;99.90;;;;;;5060218;28;20629;-75
2021/12/24 09:23:26;;;;;;;6.70;5.30;;;4.20;99.90;;;;;;5060296;28;20188;-75
2021/12/24 09:25:52;;;;;;;8.70;6.07;;;4.20;99.90;;;;;;5090161;28;20758;-75
2021/12/24 09:28:18;;;;;;;6.80;5.87;;;4.20;99.90;;;;;;5076529;28;20665;-76
2021/12/24 09:30:44;;;;;;;7.20;5.70;;;4.00;99.90;;;;;;5089894;28;20636;-76
2021/12/24 09:33:09;;;;;;;6.73;5.70;;;4.30;99.90;;;;;;5089795;28;20187;-76
2021/12/24 09:35:35;;;;;;;6.43;5.73;;;4.30;99.90;;;;;;5081193;28;21178;-75
2021/12/24 09:38:02;;;;;;;7.23;5.83;;;4.20;99.90;;;;;;5079020;28;20262;-75
2021/12/24 09:40:30;;;;;;;7.40;6.00;;;4.20;99.90;;;;;;5060128;28;20234;-75
2021/12/24 09:42:59;;;;;;;6.07;5.00;;;4.10;99.90;;;;;;5077305;28;20643;-75
2021/12/24 09:45:25;;;;;;;6.47;5.87;;;4.10;99.90;;;;;;5060179;28;20637;-75
2021/12/24 09:47:52;;;;;;;5.67;4.97;;;4.00;99.90;;;;;;5059081;28;21255;-75
2021/12/24 09:50:21;;;;;;;6.70;5.57;;;4.00;99.90;;;;;;5069128;28;20743;-75
2021/12/24 09:52:49;;;;;;;6.50;5.10;;;3.70;99.90;;;;;;5085158;28;21199;-76
2021/12/24 09:55:27;;;;;;;5.70;5.07;;;4.00;99.90;;;;;;5082203;28;20601;-76
2021/12/24 09:57:55;;;;;;;6.40;5.50;;;3.70;99.90;;;;;;5067798;28;20712;-75
2021/12/24 10:00:25;;;;;;;6.57;5.93;;;3.80;99.90;;;;;;5058528;28;20641;-75
2021/12/24 10:02:57;;;;;;;5.60;5.10;;;3.80;99.90;;;;;;5041816;28;20614;-76
2021/12/24 10:05:38;;;;;;;6.23;5.03;;;3.70;99.90;;;;;;5077005;28;20726;-75
2021/12/24 10:08:08;;;;;;;5.63;5.13;;;3.50;99.90;;;;;;5047069;28;20660;-75
2021/12/24 10:10:36;;;;;;;6.33;5.37;;;3.70;99.90;;;;;;5064568;28;20692;-75
2021/12/24 10:13:25;;;;;;;6.07;5.47;;;3.80;99.90;;;;;;5087820;28;20597;-76
2021/12/24 10:16:13;;;;;;;6.30;5.70;;;3.80;99.90;;;;;;5068382;28;20569;-75
2021/12/24 10:18:47;;;;;;;6.00;5.37;;;3.70;99.90;;;;;;5080275;28;20649;-75
2021/12/24 10:21:17;;;;;;;7.30;5.37;;;3.60;99.90;;;;;;5059071;28;21291;-77
2021/12/24 10:23:42;;;;;;;7.13;6.07;;;3.70;99.90;;;;;;5079892;28;20625;-75
2021/12/24 10:26:16;;;;;;;6.33;5.57;;;3.60;99.90;;;;;;5086586;28;20981;-75
2021/12/24 10:28:56;;;;;;;7.10;6.00;;;3.50;99.90;;;;;;5087741;28;20207;-75
2021/12/24 10:31:35;;;;;;;7.60;6.67;;;3.50;99.90;;;;;;5046941;28;20649;-75
2021/12/24 10:34:24;;;;;;;6.43;5.80;;;3.60;99.90;;;;;;5081793;28;20589;-74
2021/12/24 10:36:58;;;;;;;7.43;6.40;;;3.50;99.90;;;;;;5049175;28;20719;-75
2021/12/24 10:39:43;;;;;;;7.63;6.47;;;3.70;99.90;;;;;;5083295;28;20668;-75
2021/12/24 10:42:12;;;;;;;7.93;6.70;;;3.50;99.90;;;;;;5070951;28;20620;-75
2021/12/24 10:44:43;;;;;;;9.20;7.37;;;3.70;99.90;;;;;;5069723;28;20609;-75
2021/12/24 10:47:14;;;;;;;8.73;6.10;;;3.50;99.90;;;;;;5067185;28;20629;-75
2021/12/24 10:53:34;;;;;;;7.53;6.57;;;3.50;99.90;;;;;;5083436;28;20609;-76
2021/12/24 10:55:38;;;;;;;8.40;6.57;;;3.50;99.90;;;;;;5056251;28;20652;-75
2021/12/24 11:00:48;;;;;;;7.30;6.40;;;3.50;99.90;;;;;;5068866;28;20645;-75
2021/12/24 11:03:21;;;;;;;8.60;7.40;;;3.60;99.90;;;;;;5052313;28;20617;-76
2021/12/24 11:05:54;;;;;;;8.13;6.47;;;3.60;99.90;;;;;;5049411;28;20626;-75
2021/12/24 11:08:23;;;;;;;6.60;6.00;;;3.60;99.90;;;;;;5074709;28;20602;-75
2021/12/24 11:10:57;;;;;;;9.10;7.43;;;3.30;99.90;;;;;;5073324;28;20641;-75
2021/12/24 11:13:29;;;;;;;10.23;7.03;;;3.50;99.90;;;;;;5056287;28;20653;-75
2021/12/24 11:15:57;;;;;;;7.83;7.03;;;3.70;99.90;;;;;;5046196;28;20625;-75
2021/12/24 11:18:33;;;;;;;9.43;7.40;;;3.60;99.90;;;;;;5056110;28;20732;-75
2021/12/24 11:21:18;;;;;;;10.40;8.47;;;3.70;99.90;;;;;;5068552;28;20653;-77
2021/12/24 11:23:43;;;;;;;11.27;8.80;;;3.60;99.90;;;;;;5073948;28;20952;-76
2021/12/24 11:26:15;;;;;;;10.13;8.27;;;3.70;99.90;;;;;;5073923;28;20598;-76
2021/12/24 11:28:41;;;;;;;9.87;8.10;;;3.60;99.90;;;;;;5054189;28;20199;-75
2021/12/24 11:31:13;;;;;;;8.77;7.80;;;3.70;99.90;;;;;;5072003;28;20649;-75
2021/12/24 11:33:42;;;;;;;10.87;8.80;;;3.60;99.90;;;;;;5054765;28;20617;-75
2021/12/24 11:36:10;;;;;;;11.50;8.90;;;3.60;99.90;;;;;;5070519;28;20963;-75
2021/12/24 11:38:38;;;;;;;10.13;9.13;;;3.60;99.90;;;;;;5055774;28;20638;-76
2021/12/24 11:41:08;;;;;;;11.40;8.80;;;3.60;99.90;;;;;;5051095;28;20651;-76
2021/12/24 11:43:37;;;;;;;12.13;9.20;;;3.60;99.90;;;;;;5071570;28;20618;-75
2021/12/24 11:46:06;;;;;;;9.30;8.30;;;3.50;99.90;;;;;;5053916;28;20626;-75
2021/12/24 11:48:33;;;;;;;10.43;8.60;;;3.80;99.90;;;;;;5071437;28;20656;-75
2021/12/24 11:51:09;;;;;;;12.10;8.70;;;3.70;99.90;;;;;;5054490;28;20637;-75
2021/12/24 11:53:36;;;;;;;11.47;8.67;;;3.70;99.90;;;;;;5073743;28;20577;-76
2021/12/24 11:56:07;;;;;;;12.63;9.70;;;3.40;99.90;;;;;;5055319;28;20633;-76
2021/12/24 11:58:32;;;;;;;14.07;10.30;;;3.60;99.90;;;;;;5055634;28;20641;-76
2021/12/24 12:01:05;;;;;;;16.57;10.57;;;3.40;99.90;;;;;;5069179;28;20646;-75
2021/12/24 12:03:45;;;;;;;14.27;9.90;;;3.60;99.90;;;;;;5042995;28;20633;-75
2021/12/24 12:06:17;;;;;;;15.07;9.50;;;3.60;99.90;;;;;;5072819;28;20589;-76
2021/12/24 12:08:47;;;;;;;11.70;9.13;;;3.80;99.90;;;;;;5073627;28;20649;-75
2021/12/24 12:11:19;;;;;;;13.10;9.50;;;3.80;99.90;;;;;;5066559;28;20626;-76
2021/12/24 12:13:54;;;;;;;11.63;9.10;;;3.70;99.90;;;;;;5069283;28;20613;-76
2021/12/24 12:16:24;;;;;;;13.50;9.23;;;3.80;99.90;;;;;;5049780;28;20613;-75
2021/12/24 12:19:09;;;;;;;12.03;9.73;;;3.70;99.90;;;;;;5053875;28;20725;-75
2021/12/24 12:21:43;;;;;;;17.60;11.17;;;3.70;99.90;;;;;;5071125;28;20629;-75
2021/12/24 12:26:43;;;;;;;13.63;9.93;;;3.70;99.90;;;;;;5073549;28;20617;-76
2021/12/24 12:29:42;;;;;;;14.37;10.30;;;3.60;99.90;;;;;;5048336;28;20645;-75
2021/12/24 12:32:16;;;;;;;12.33;10.50;;;3.80;99.90;;;;;;5072851;28;20729;-75
2021/12/24 12:34:45;;;;;;;14.00;9.93;;;3.70;99.90;;;;;;5073439;28;20597;-75
2021/12/24 12:37:30;;;;;;;11.67;9.70;;;3.70;99.90;;;;;;5055220;28;20705;-75
2021/12/24 12:40:01;;;;;;;12.20;10.40;;;3.50;99.90;;;;;;5071189;28;20657;-75
2021/12/24 12:42:54;;;;;;;12.17;10.10;;;3.70;99.90;;;;;;5072915;28;20623;-75
2021/12/24 12:45:43;;;;;;;13.50;9.30;;;3.70;99.90;;;;;;5073547;28;20605;-75
2021/12/24 12:48:23;;;;;;;11.50;9.40;;;3.70;99.90;;;;;;5054620;28;20650;-75
2021/12/24 12:51:00;;;;;;;12.97;9.77;;;3.40;99.90;;;;;;5048144;28;20651;-75
2021/12/24 12:53:35;;;;;;;14.50;10.70;;;3.80;99.90;;;;;;5055539;28;20586;-75
2021/12/24 12:56:27;;;;;;;13.80;10.03;;;3.60;99.90;;;;;;5051637;28;20625;-75
2021/12/24 12:58:59;;;;;;;14.37;11.43;;;3.60;99.90;;;;;;5054066;28;20718;-77
2021/12/24 13:01:26;;;;;;;12.70;10.57;;;3.60;99.90;;;;;;5064122;28;20635;-75
2021/12/24 13:03:57;;;;;;;13.17;9.90;;;3.60;99.90;;;;;;5053974;28;20747;-75
2021/12/24 13:06:48;;;;;;;13.90;10.40;;;3.50;99.90;;;;;;5075278;28;20974;-75
2021/12/24 13:09:17;;;;;;;16.67;11.87;;;3.70;99.90;;;;;;5070590;28;20724;-76
2021/12/24 13:11:45;;;;;;;16.03;11.00;;;3.30;99.90;;;;;;5061495;28;20633;-75
2021/12/24 13:14:13;;;;;;;16.10;12.03;;;3.50;99.90;;;;;;5059008;28;20613;-75
2021/12/24 13:17:15;;;;;;;14.87;11.33;;;3.50;99.90;;;;;;5058285;28;20621;-75
2021/12/24 13:25:01;;;;;;;12.63;10.50;;;3.50;99.90;;;;;;5076298;28;20566;-75
2021/12/24 13:27:37;;;;;;;15.40;11.10;;;3.60;99.90;;;;;;5076314;28;20696;-75
2021/12/24 13:30:11;;;;;;;13.47;10.20;;;3.50;99.90;;;;;;5061129;28;20637;-75
2021/12/24 13:32:47;;;;;;;12.73;11.07;;;3.50;99.90;;;;;;5065984;28;20579;-75
2021/12/24 13:35:16;;;;;;;13.50;10.00;;;3.50;99.90;;;;;;5076172;28;21160;-76
2021/12/24 13:37:45;;;;;;;14.60;10.70;;;3.50;99.90;;;;;;5056618;28;20703;-76
2021/12/24 13:40:20;;;;;;;14.40;10.80;;;3.20;99.90;;;;;;5068141;28;20684;-75
2021/12/24 13:42:52;;;;;;;13.20;11.10;;;3.40;99.90;;;;;;5058315;28;21251;-76
2021/12/24 13:45:20;;;;;;;13.43;10.20;;;3.40;99.90;;;;;;5058303;28;20714;-75
2021/12/24 13:47:56;;;;;;;16.63;11.70;;;3.60;99.90;;;;;;5076632;28;20637;-75
2021/12/24 13:54:31;;;;;;;14.93;11.80;;;3.60;99.90;;;;;;5072910;28;21373;-76
2021/12/24 13:56:00;;;;;;;15.93;11.30;;;3.20;99.90;;;;;;5071786;28;20654;-75
2021/12/24 13:58:26;;;;;;;19.27;12.90;;;3.40;99.90;;;;;;5075937;28;20613;-75
2021/12/24 14:00:55;;;;;;;18.23;11.73;;;3.40;99.90;;;;;;5055612;28;20984;-75
2021/12/24 14:03:30;;;;;;;13.87;10.77;;;3.40;99.90;;;;;;5075788;28;20635;-76
2021/12/24 14:06:03;;;;;;;19.97;13.67;;;3.50;99.90;;;;;;5057887;28;20605;-75
2021/12/24 14:08:37;;;;;;;14.00;11.80;;;3.50;99.90;;;;;;5073750;28;20649;-76
2021/12/24 14:11:18;;;;;;;18.00;12.10;;;3.50;99.90;;;;;;5052838;28;20698;-75
2021/12/24 14:13:50;;;;;;;19.30;13.30;;;3.50;99.90;;;;;;5054230;28;20605;-76
2021/12/24 14:19:09;;;;;;;18.10;13.53;;;3.60;99.90;;;;;;5075210;28;20641;-76
2021/12/24 14:24:15;;;;;;;20.43;13.53;;;3.20;99.90;;;;;;5072706;28;20624;-76
2021/12/24 14:27:00;;;;;;;20.33;13.80;;;3.50;99.90;;;;;;5057084;28;20662;-76
2021/12/24 14:29:42;;;;;;;18.87;12.37;;;3.30;99.90;;;;;;5074308;28;20601;-76
2021/12/24 14:32:28;;;;;;;21.73;13.93;;;3.50;99.90;;;;;;5080350;28;20566;-76
2021/12/24 14:35:12;;;;;;;21.13;13.23;;;3.50;99.90;;;;;;5057426;28;20615;-76
2021/12/24 14:37:38;;;;;;;20.10;12.77;;;3.40;99.90;;;;;;5058247;28;20641;-76
2021/12/24 14:40:07;;;;;;;19.50;13.57;;;3.50;99.90;;;;;;5052669;28;21192;-76
2021/12/24 14:42:35;;;;;;;22.47;13.00;;;3.40;99.90;;;;;;5053539;28;20203;-76
2021/12/24 14:45:29;;;;;;;20.30;13.10;;;3.30;99.90;;;;;;5057294;28;20640;-75
2021/12/24 14:48:07;;;;;;;19.17;11.00;;;3.60;99.90;;;;;;5058997;28;20648;-76
2021/12/24 14:50:36;;;;;;;17.13;11.47;;;3.30;99.90;;;;;;5041034;28;20630;-76
2021/12/24 14:53:12;;;;;;;17.17;10.80;;;3.50;99.90;;;;;;5076068;28;20604;-76
2021/12/24 14:55:41;;;;;;;12.20;8.20;;;3.30;99.90;;;;;;5052988;28;20679;-76
2021/12/24 14:58:07;;;;;;;12.60;7.90;;;3.20;99.90;;;;;;5050015;28;20992;-76
2021/12/24 15:00:39;;;;;;;12.90;7.47;;;3.60;99.90;;;;;;5055762;28;20644;-76
2021/12/24 15:03:14;;;;;;;9.50;6.67;;;3.50;99.90;;;;;;5072695;28;21879;-76
2021/12/24 15:05:49;;;;;;;9.87;6.30;;;3.40;99.90;;;;;;5073089;28;21192;-76
2021/12/24 15:08:28;;;;;;;7.43;5.80;;;3.20;99.90;;;;;;5074404;28;20970;-76
2021/12/24 15:11:03;;;;;;;8.33;5.67;;;3.30;99.90;;;;;;5073240;28;20740;-76
2021/12/24 15:13:30;;;;;;;6.17;4.20;;;3.30;99.90;;;;;;5056304;28;20612;-76
2021/12/24 15:15:58;;;;;;;4.73;3.57;;;3.20;99.90;;;;;;5056979;28;20758;-76
2021/12/24 15:18:28;;;;;;;5.73;3.40;;;3.30;99.90;;;;;;5061065;28;20716;-76
2021/12/24 15:20:53;;;;;;;5.80;3.23;;;2.90;99.90;;;;;;5086539;28;20621;-76
2021/12/24 15:23:19;;;;;;;3.97;3.00;;;3.10;99.90;;;;;;5088788;28;20582;-76
2021/12/24 15:25:46;;;;;;;8.37;2.40;;;2.80;99.90;;;;;;5080558;28;20728;-75
2021/12/24 15:28:17;;;;;;;3.33;2.07;;;3.00;99.90;;;;;;5071539;28;20726;-76
2021/12/24 15:30:44;;;;;;;3.40;1.60;;;2.90;99.90;;;;;;5058326;28;20768;-76
2021/12/24 15:33:10;;;;;;;4.33;1.70;;;3.00;99.90;;;;;;5052261;28;20696;-76
2021/12/24 15:35:36;;;;;;;2.50;1.77;;;2.60;99.90;;;;;;5074290;28;20643;-76
2021/12/24 15:38:05;;;;;;;3.10;2.30;;;2.80;99.90;;;;;;5073824;28;21207;-76
2021/12/24 15:40:32;;;;;;;5.27;2.73;;;2.60;99.90;;;;;;5054426;28;20645;-76
2021/12/24 15:43:02;;;;;;;4.20;2.30;;;2.50;99.90;;;;;;5074674;28;20712;-76
2021/12/24 15:45:29;;;;;;;3.83;1.83;;;2.90;99.90;;;;;;5073608;28;20619;-76
2021/12/24 15:47:55;;;;;;;4.43;1.80;;;2.70;99.90;;;;;;5073647;28;20999;-76
2021/12/24 15:50:21;;;;;;;3.77;1.30;;;2.70;99.90;;;;;;5071924;28;20645;-76